Time;durP1;ratioP1;P1;durP2;ratioP2;P2;SDS_P1;SDS_P2;PMS_P1;PMS_P2;Temp;Humidity;BMP_temperature;BMP_pressure;BME280_temperature;BME280_humidity;BME280_pressure;Samples;Min_cycle;Max_cycle;Signal;HPM_P1;HPM_P2
2023/09/30 00:01:18;;;;;;;21.65;14.77;;;486.50;2380.80;;;;;;5077221;28;20466;-71
2023/09/30 00:03:44;;;;;;;25.65;15.32;;;486.50;2380.80;;;;;;5073285;28;20028;-71
2023/09/30 00:06:10;;;;;;;27.65;14.65;;;486.40;2380.80;;;;;;5068939;28;20082;-71
2023/09/30 00:08:38;;;;;;;25.02;14.75;;;486.40;2380.80;;;;;;5070938;28;20469;-70
2023/09/30 00:11:05;;;;;;;23.95;14.68;;;486.50;2380.80;;;;;;5075772;28;20109;-71
2023/09/30 00:13:31;;;;;;;27.25;15.18;;;461.70;2380.80;;;;;;5069123;28;20497;-72
2023/09/30 00:15:58;;;;;;;27.27;16.05;;;486.40;2380.80;;;;;;5077703;28;20408;-70
2023/09/30 00:18:23;;;;;;;20.90;15.70;;;461.70;2380.80;;;;;;5074244;28;20028;-71
2023/09/30 00:20:49;;;;;;;22.90;14.50;;;461.40;2380.80;;;;;;5070624;28;20036;-71
2023/09/30 00:23:15;;;;;;;22.13;15.25;;;461.20;2380.80;;;;;;5075427;28;20374;-70
2023/09/30 00:25:41;;;;;;;21.70;14.95;;;461.40;2380.80;;;;;;5081500;28;20060;-70
2023/09/30 00:28:07;;;;;;;23.65;15.75;;;461.20;2380.80;;;;;;5072230;28;20024;-71
2023/09/30 00:30:33;;;;;;;23.73;15.63;;;461.40;2380.80;;;;;;5076373;28;20021;-71
2023/09/30 00:33:00;;;;;;;26.40;14.70;;;461.50;2380.80;;;;;;5072491;28;20560;-71
2023/09/30 00:35:25;;;;;;;25.80;14.57;;;461.60;2380.80;;;;;;5072484;28;20421;-71
2023/09/30 00:37:51;;;;;;;25.40;15.77;;;461.70;2380.80;;;;;;5072425;28;20090;-72
2023/09/30 00:40:17;;;;;;;21.40;14.48;;;461.60;2380.80;;;;;;5072166;28;20127;-71
2023/09/30 00:42:42;;;;;;;23.25;14.52;;;461.60;2380.80;;;;;;5072598;28;20024;-71
2023/09/30 00:45:09;;;;;;;22.63;15.02;;;461.60;2380.80;;;;;;5073997;28;20021;-73
2023/09/30 00:47:36;;;;;;;34.28;16.02;;;461.30;2380.80;;;;;;5074033;28;20040;-71
2023/09/30 00:50:03;;;;;;;21.75;14.93;;;461.00;2380.80;;;;;;5060441;28;20021;-72
2023/09/30 00:52:31;;;;;;;25.67;15.23;;;460.90;2380.80;;;;;;5056225;28;20102;-72
2023/09/30 00:54:58;;;;;;;26.55;15.10;;;436.10;2355.20;;;;;;5056130;28;20478;-72
2023/09/30 00:57:25;;;;;;;26.27;15.23;;;460.90;2380.80;;;;;;5056063;28;20090;-71
2023/09/30 00:59:51;;;;;;;28.17;14.35;;;461.10;2380.80;;;;;;5056165;28;20032;-72
2023/09/30 01:02:21;;;;;;;28.00;15.00;;;461.10;2380.80;;;;;;5056022;28;20056;-71
2023/09/30 01:04:47;;;;;;;26.60;14.77;;;461.20;2380.80;;;;;;5056235;28;20108;-71
2023/09/30 01:07:13;;;;;;;21.00;14.02;;;461.30;2380.80;;;;;;5055987;28;20024;-72
2023/09/30 01:09:39;;;;;;;22.88;14.65;;;461.40;2380.80;;;;;;5055769;28;20029;-72
2023/09/30 01:12:05;;;;;;;22.05;15.18;;;461.40;2380.80;;;;;;5055953;28;20154;-71
2023/09/30 01:14:38;;;;;;;22.77;13.57;;;461.40;2380.80;;;;;;5056043;28;20490;-71
2023/09/30 01:17:08;;;;;;;29.25;14.93;;;461.40;2380.80;;;;;;5055749;28;20113;-71
2023/09/30 01:19:34;;;;;;;24.50;13.75;;;461.40;2380.80;;;;;;5055886;28;20029;-71
2023/09/30 01:22:00;;;;;;;24.75;15.77;;;461.40;2380.80;;;;;;5055695;28;20025;-72
2023/09/30 01:24:26;;;;;;;24.67;15.73;;;461.30;2380.80;;;;;;5056153;28;20040;-71
2023/09/30 01:26:53;;;;;;;22.00;14.65;;;461.30;2380.80;;;;;;5057745;28;20056;-71
2023/09/30 01:29:19;;;;;;;19.30;14.63;;;461.40;2380.80;;;;;;5055783;28;20032;-71
2023/09/30 01:31:47;;;;;;;26.42;13.98;;;461.30;2380.80;;;;;;5055792;28;20025;-72
2023/09/30 01:34:15;;;;;;;18.27;12.30;;;461.30;2380.80;;;;;;5056272;28;20029;-71
2023/09/30 01:36:43;;;;;;;20.13;12.98;;;461.20;2380.80;;;;;;5055475;28;20072;-71
2023/09/30 01:39:13;;;;;;;18.33;11.85;;;461.20;2380.80;;;;;;5055203;28;20037;-70
2023/09/30 01:41:39;;;;;;;20.02;12.48;;;461.40;2380.80;;;;;;5055480;28;20025;-71
2023/09/30 01:44:06;;;;;;;20.45;12.52;;;461.30;2380.80;;;;;;5055257;28;20029;-71
2023/09/30 01:46:32;;;;;;;20.27;12.98;;;461.40;2380.80;;;;;;5055350;28;21108;-71
2023/09/30 01:48:57;;;;;;;19.50;13.07;;;461.20;2380.80;;;;;;5055226;28;20033;-71
2023/09/30 01:51:23;;;;;;;17.20;12.18;;;461.20;2380.80;;;;;;5054981;28;20025;-70
2023/09/30 01:53:49;;;;;;;17.67;12.50;;;461.20;2380.80;;;;;;5055223;28;20419;-71
2023/09/30 01:56:15;;;;;;;26.25;12.90;;;461.20;2380.80;;;;;;5053735;28;20022;-71
2023/09/30 01:58:41;;;;;;;17.95;11.77;;;461.20;2380.80;;;;;;5054616;28;20047;-71
2023/09/30 02:01:07;;;;;;;25.02;12.73;;;461.20;2380.80;;;;;;5054287;28;20466;-72
2023/09/30 02:03:33;;;;;;;17.33;12.30;;;461.20;2380.80;;;;;;5054163;28;20628;-71
2023/09/30 02:05:59;;;;;;;16.48;12.05;;;461.30;2380.80;;;;;;5054424;28;20100;-71
2023/09/30 02:08:25;;;;;;;22.90;11.20;;;461.30;2380.80;;;;;;5054075;28;20092;-71
2023/09/30 02:10:51;;;;;;;17.65;11.80;;;461.30;2380.80;;;;;;5054141;28;20056;-71
2023/09/30 02:13:17;;;;;;;18.17;11.27;;;461.20;2380.80;;;;;;5054150;28;20032;-72
2023/09/30 02:15:43;;;;;;;15.95;11.68;;;461.30;2380.80;;;;;;5053855;28;20025;-71
2023/09/30 02:18:09;;;;;;;21.10;11.50;;;461.30;2380.80;;;;;;5054141;28;20111;-71
2023/09/30 02:20:39;;;;;;;14.80;10.77;;;461.30;2380.80;;;;;;5053841;28;20021;-71
2023/09/30 02:23:05;;;;;;;13.55;10.75;;;461.30;2380.80;;;;;;5053935;28;20033;-72
2023/09/30 02:25:32;;;;;;;13.55;10.32;;;461.30;2380.80;;;;;;5053949;28;20017;-71
2023/09/30 02:27:57;;;;;;;18.95;11.73;;;461.20;2380.80;;;;;;5053913;28;20025;-71
2023/09/30 02:30:24;;;;;;;20.80;11.77;;;461.20;2380.80;;;;;;5053743;28;20386;-71
2023/09/30 02:32:49;;;;;;;20.40;12.43;;;461.20;2380.80;;;;;;5054130;28;20082;-71
2023/09/30 02:35:15;;;;;;;15.10;11.25;;;461.20;2380.80;;;;;;5053523;28;20021;-71
2023/09/30 02:37:41;;;;;;;19.30;11.32;;;461.20;2380.80;;;;;;5053540;28;20041;-71
2023/09/30 02:40:11;;;;;;;16.13;10.93;;;461.20;2380.80;;;;;;5053376;28;20120;-71
2023/09/30 02:42:38;;;;;;;15.52;11.35;;;461.10;2380.80;;;;;;5051427;28;20379;-72
2023/09/30 02:45:05;;;;;;;17.40;10.77;;;461.00;2380.80;;;;;;5053513;28;20033;-71
2023/09/30 02:47:31;;;;;;;15.77;10.85;;;461.00;2380.80;;;;;;5053503;28;20390;-72
2023/09/30 02:49:57;;;;;;;20.67;11.57;;;461.10;2380.80;;;;;;5053659;28;20025;-71
2023/09/30 02:52:24;;;;;;;16.02;9.80;;;461.00;2380.80;;;;;;5053243;28;20462;-72
2023/09/30 02:54:50;;;;;;;15.57;11.52;;;461.00;2380.80;;;;;;5052249;28;20052;-71
2023/09/30 02:57:17;;;;;;;16.15;11.63;;;460.80;2380.80;;;;;;5053305;28;20021;-72
2023/09/30 02:59:44;;;;;;;15.50;10.25;;;460.80;2380.80;;;;;;5053363;28;20033;-71
2023/09/30 03:02:11;;;;;;;21.17;12.38;;;435.90;2355.20;;;;;;5053221;28;20029;-72
2023/09/30 03:04:37;;;;;;;16.20;11.68;;;436.00;2355.20;;;;;;5053137;28;20103;-71
2023/09/30 03:07:03;;;;;;;14.82;10.63;;;436.00;2355.20;;;;;;5053022;28;20021;-72
2023/09/30 03:09:28;;;;;;;16.42;11.48;;;436.10;2355.20;;;;;;5052935;28;20036;-71
2023/09/30 03:11:59;;;;;;;18.42;10.90;;;436.10;2355.20;;;;;;5053067;28;20039;-70
2023/09/30 03:14:25;;;;;;;16.20;11.18;;;436.10;2355.20;;;;;;5051659;28;20029;-71
2023/09/30 03:16:51;;;;;;;16.17;10.82;;;460.80;2380.80;;;;;;5052903;28;20021;-72
2023/09/30 03:19:17;;;;;;;15.85;9.95;;;460.90;2380.80;;;;;;5052762;28;20484;-72
2023/09/30 03:21:43;;;;;;;15.65;10.88;;;460.80;2380.80;;;;;;5053085;28;20116;-72
2023/09/30 03:24:09;;;;;;;16.35;11.32;;;436.10;2355.20;;;;;;5052871;28;20029;-72
2023/09/30 03:26:35;;;;;;;15.75;10.85;;;436.10;2355.20;;;;;;5052677;28;20075;-72
2023/09/30 03:29:03;;;;;;;14.43;10.57;;;436.10;2355.20;;;;;;5052775;28;20071;-71
2023/09/30 03:31:29;;;;;;;19.58;10.43;;;435.90;2355.20;;;;;;5052671;28;20021;-71
2023/09/30 03:33:55;;;;;;;15.98;11.10;;;435.90;2355.20;;;;;;5052497;28;20474;-71
2023/09/30 03:36:24;;;;;;;16.35;11.23;;;436.00;2355.20;;;;;;5050841;28;20116;-72
2023/09/30 03:38:50;;;;;;;17.50;11.45;;;436.00;2355.20;;;;;;5052413;28;20040;-71
2023/09/30 03:41:16;;;;;;;15.13;11.15;;;436.10;2355.20;;;;;;5052356;28;20122;-71
2023/09/30 03:43:42;;;;;;;18.15;11.55;;;435.90;2355.20;;;;;;5052488;28;20025;-72
2023/09/30 03:46:08;;;;;;;17.60;12.20;;;435.80;2355.20;;;;;;5052501;28;20024;-72
2023/09/30 03:48:39;;;;;;;18.88;10.80;;;435.60;2355.20;;;;;;5052401;28;20436;-71
2023/09/30 03:51:14;;;;;;;16.80;11.57;;;435.60;2355.20;;;;;;5052491;28;20021;-71
2023/09/30 03:53:44;;;;;;;18.13;11.80;;;435.60;2355.20;;;;;;5052349;28;20013;-72
2023/09/30 03:56:14;;;;;;;15.73;11.93;;;435.80;2355.20;;;;;;5052381;28;20028;-70
2023/09/30 03:58:41;;;;;;;21.73;11.43;;;435.70;2355.20;;;;;;5052160;28;20036;-71
2023/09/30 04:01:13;;;;;;;18.35;11.20;;;435.80;2355.20;;;;;;5052264;28;20032;-74
2023/09/30 04:03:40;;;;;;;14.48;10.85;;;435.60;2355.20;;;;;;5052168;28;20036;-73
2023/09/30 04:06:08;;;;;;;15.93;10.38;;;435.60;2355.20;;;;;;5052300;28;20029;-70
2023/09/30 04:08:35;;;;;;;24.45;11.40;;;435.50;2355.20;;;;;;5052069;28;20112;-71
2023/09/30 04:11:02;;;;;;;16.98;11.88;;;435.50;2355.20;;;;;;5052145;28;20028;-71
2023/09/30 04:13:29;;;;;;;14.45;11.10;;;435.60;2355.20;;;;;;5052119;28;20051;-70
2023/09/30 04:15:56;;;;;;;18.23;11.65;;;435.60;2355.20;;;;;;5052137;28;20025;-71
2023/09/30 04:18:22;;;;;;;16.23;11.55;;;435.60;2355.20;;;;;;5052215;28;20466;-71
2023/09/30 04:20:48;;;;;;;21.25;12.48;;;435.50;2355.20;;;;;;5055030;28;20108;-71
2023/09/30 04:23:15;;;;;;;23.20;11.70;;;435.40;2355.20;;;;;;5056114;28;20056;-72
2023/09/30 04:25:42;;;;;;;15.60;11.80;;;435.50;2355.20;;;;;;5056211;28;20025;-72
2023/09/30 04:28:09;;;;;;;21.63;12.52;;;435.60;2355.20;;;;;;5056031;28;20513;-72
2023/09/30 04:30:35;;;;;;;19.25;12.43;;;435.60;2355.20;;;;;;5056256;28;20099;-71
2023/09/30 04:33:04;;;;;;;17.13;12.18;;;435.60;2355.20;;;;;;5056000;28;20028;-72
2023/09/30 04:35:31;;;;;;;18.98;12.23;;;435.50;2355.20;;;;;;5055946;28;20493;-71
2023/09/30 04:38:01;;;;;;;23.42;13.55;;;435.40;2355.20;;;;;;5055941;28;20528;-71
2023/09/30 04:40:27;;;;;;;28.23;14.35;;;435.40;2355.20;;;;;;5063725;28;20182;-71
2023/09/30 04:42:58;;;;;;;21.50;13.60;;;435.30;2355.20;;;;;;5068382;28;20104;-70
2023/09/30 04:45:25;;;;;;;20.17;12.32;;;435.30;2355.20;;;;;;5078740;28;20024;-71
2023/09/30 04:47:52;;;;;;;20.55;12.70;;;435.40;2355.20;;;;;;5080018;28;20073;-70
2023/09/30 04:50:21;;;;;;;23.63;13.23;;;435.60;2355.20;;;;;;5065717;28;20021;-71
2023/09/30 04:52:47;;;;;;;22.42;13.50;;;435.60;2355.20;;;;;;5074086;28;20021;-71
2023/09/30 04:55:15;;;;;;;24.83;15.20;;;435.40;2355.20;;;;;;5075712;28;20094;-70
2023/09/30 04:57:44;;;;;;;23.80;14.80;;;435.40;2355.20;;;;;;5072238;28;20499;-70
2023/09/30 05:00:12;;;;;;;23.58;13.98;;;435.20;2355.20;;;;;;5073891;28;20466;-70
2023/09/30 05:02:37;;;;;;;23.63;14.38;;;435.30;2355.20;;;;;;5067069;28;20025;-70
2023/09/30 05:05:06;;;;;;;25.40;13.77;;;435.30;2355.20;;;;;;5072220;28;20054;-70
2023/09/30 05:07:33;;;;;;;25.27;14.63;;;435.40;2355.20;;;;;;5078015;28;20381;-73
2023/09/30 05:09:59;;;;;;;23.83;14.05;;;435.60;2355.20;;;;;;5072113;28;20524;-75
2023/09/30 05:12:25;;;;;;;23.63;14.35;;;435.50;2355.20;;;;;;5077509;28;20032;-75
2023/09/30 05:14:52;;;;;;;23.65;13.98;;;435.30;2355.20;;;;;;5076680;28;20029;-75
2023/09/30 05:17:18;;;;;;;24.60;15.07;;;435.40;2355.20;;;;;;5067129;28;20028;-76
2023/09/30 05:19:44;;;;;;;24.50;14.77;;;435.50;2355.20;;;;;;5086524;28;20045;-75
2023/09/30 05:22:10;;;;;;;24.83;13.80;;;435.60;2355.20;;;;;;5074582;28;20031;-77
2023/09/30 05:24:36;;;;;;;24.02;14.82;;;435.70;2355.20;;;;;;5075005;28;20024;-76
2023/09/30 05:27:02;;;;;;;21.98;15.13;;;435.90;2355.20;;;;;;5072414;28;20025;-78
2023/09/30 05:29:28;;;;;;;21.75;14.88;;;435.90;2355.20;;;;;;5065965;28;20037;-80
2023/09/30 05:31:54;;;;;;;27.27;15.20;;;436.10;2355.20;;;;;;5075844;28;20111;-78
2023/09/30 05:34:20;;;;;;;23.60;13.73;;;436.10;2355.20;;;;;;5068263;28;20099;-76
2023/09/30 05:36:45;;;;;;;29.38;15.13;;;436.10;2355.20;;;;;;5068818;28;20066;-74
2023/09/30 05:39:11;;;;;;;23.58;15.15;;;460.80;2380.80;;;;;;5072976;28;20040;-75
2023/09/30 05:41:38;;;;;;;23.05;15.48;;;460.80;2380.80;;;;;;5067908;28;20390;-76
2023/09/30 05:44:04;;;;;;;25.40;15.20;;;460.90;2380.80;;;;;;5066663;28;20021;-76
2023/09/30 05:46:33;;;;;;;29.75;15.65;;;461.00;2380.80;;;;;;5063384;28;20017;-76
2023/09/30 05:48:59;;;;;;;25.05;14.88;;;461.10;2380.80;;;;;;5075335;28;20029;-76
2023/09/30 05:51:24;;;;;;;32.58;16.40;;;461.10;2380.80;;;;;;5079624;28;20035;-77
2023/09/30 05:53:50;;;;;;;24.17;15.70;;;461.20;2380.80;;;;;;5082091;28;20112;-77
2023/09/30 05:56:16;;;;;;;27.27;16.15;;;461.20;2380.80;;;;;;5073528;28;20040;-77
2023/09/30 05:58:44;;;;;;;31.85;16.95;;;461.40;2380.80;;;;;;5068803;28;20472;-77
2023/09/30 06:01:10;;;;;;;27.17;16.63;;;461.40;2380.80;;;;;;5072886;28;20028;-76
2023/09/30 06:03:40;;;;;;;25.35;16.90;;;461.40;2380.80;;;;;;5073008;28;20032;-76
2023/09/30 06:06:15;;;;;;;27.42;17.02;;;461.50;2380.80;;;;;;5069213;28;20025;-76
2023/09/30 06:08:45;;;;;;;24.75;16.17;;;461.70;2380.80;;;;;;5065417;28;20033;-78
2023/09/30 06:11:24;;;;;;;25.77;16.30;;;486.40;2380.80;;;;;;5071997;28;20485;-76
2023/09/30 06:13:52;;;;;;;31.17;17.10;;;486.50;2380.80;;;;;;5068416;28;20406;-75
2023/09/30 06:16:18;;;;;;;30.80;17.75;;;486.60;2380.80;;;;;;5066885;28;20398;-76
2023/09/30 06:18:48;;;;;;;30.70;16.67;;;486.80;2380.80;;;;;;5070262;28;20512;-76
2023/09/30 06:21:16;;;;;;;31.67;17.27;;;486.90;2380.80;;;;;;5070253;28;20020;-75
2023/09/30 06:23:43;;;;;;;24.45;15.40;;;487.10;2380.80;;;;;;5086446;28;20040;-75
2023/09/30 06:26:09;;;;;;;28.58;16.95;;;487.30;2380.80;;;;;;5074944;28;20417;-76
2023/09/30 06:28:40;;;;;;;21.88;14.88;;;487.20;2380.80;;;;;;5068599;28;20119;-76
2023/09/30 06:31:07;;;;;;;26.75;16.00;;;512.10;2380.80;;;;;;5069633;28;20025;-76
2023/09/30 06:33:34;;;;;;;29.65;14.80;;;512.40;2380.80;;;;;;5070940;28;20017;-76
2023/09/30 06:36:02;;;;;;;25.65;15.23;;;512.80;2380.80;;;;;;5070902;28;20033;-76
2023/09/30 06:38:27;;;;;;;25.58;15.77;;;537.60;2406.40;;;;;;5064409;28;20118;-76
2023/09/30 06:40:53;;;;;;;26.00;15.45;;;537.70;2406.40;;;;;;5073724;28;20497;-77
2023/09/30 06:43:19;;;;;;;24.67;14.88;;;537.90;2406.40;;;;;;5068742;28;20036;-77
2023/09/30 06:45:46;;;;;;;28.95;14.60;;;538.20;2406.40;;;;;;5069537;28;20032;-76
2023/09/30 06:48:12;;;;;;;23.38;14.63;;;538.40;2406.40;;;;;;5072828;28;20020;-77
2023/09/30 06:50:48;;;;;;;22.08;14.55;;;563.30;2432.00;;;;;;5076830;28;20457;-76
2023/09/30 06:53:18;;;;;;;23.30;14.95;;;563.50;2432.00;;;;;;5064005;28;20029;-76
2023/09/30 06:55:45;;;;;;;29.20;15.30;;;563.70;2432.00;;;;;;5070772;28;20031;-76
2023/09/30 06:58:11;;;;;;;26.73;14.93;;;563.80;2432.00;;;;;;5075238;28;20037;-76
2023/09/30 07:00:38;;;;;;;23.48;13.85;;;564.00;2432.00;;;;;;5082224;28;20013;-77
2023/09/30 07:03:04;;;;;;;21.48;13.20;;;564.10;2432.00;;;;;;5067927;28;20025;-76
2023/09/30 07:05:30;;;;;;;23.67;14.82;;;589.10;2432.00;;;;;;5075626;28;20020;-74
2023/09/30 07:07:56;;;;;;;19.10;13.38;;;589.40;2432.00;;;;;;5064973;28;20379;-74
2023/09/30 07:10:22;;;;;;;19.52;14.93;;;589.60;2432.00;;;;;;5068970;28;20557;-74
2023/09/30 07:12:48;;;;;;;19.77;14.48;;;589.70;2432.00;;;;;;5067446;28;20111;-74
2023/09/30 07:15:14;;;;;;;26.75;14.50;;;614.50;2432.00;;;;;;5073028;28;20094;-75
2023/09/30 07:17:40;;;;;;;20.58;13.85;;;614.50;2432.00;;;;;;5068120;28;20029;-74
2023/09/30 07:20:07;;;;;;;27.73;14.73;;;614.40;2432.00;;;;;;5066281;28;20054;-74
2023/09/30 07:22:33;;;;;;;20.40;14.77;;;614.80;2432.00;;;;;;5075210;28;20035;-75
2023/09/30 07:24:59;;;;;;;20.30;13.95;;;614.70;2432.00;;;;;;5076047;28;20107;-74
2023/09/30 07:27:25;;;;;;;19.20;14.25;;;614.70;2432.00;;;;;;5070437;28;20025;-75
2023/09/30 07:29:51;;;;;;;20.25;13.57;;;614.80;2432.00;;;;;;5073813;28;20023;-75
2023/09/30 07:32:17;;;;;;;18.05;12.88;;;614.90;2432.00;;;;;;5067910;28;20070;-74
2023/09/30 07:34:43;;;;;;;25.73;13.85;;;615.20;2432.00;;;;;;5084489;28;20100;-75
2023/09/30 07:37:09;;;;;;;23.70;14.45;;;614.90;2432.00;;;;;;5072723;28;20469;-74
2023/09/30 07:39:38;;;;;;;22.60;15.15;;;615.30;2432.00;;;;;;5077189;28;20051;-76
2023/09/30 07:42:04;;;;;;;26.85;14.32;;;640.00;2432.00;;;;;;5068961;28;20087;-75
2023/09/30 07:44:30;;;;;;;21.52;13.70;;;640.00;2432.00;;;;;;5063534;28;20485;-74
2023/09/30 07:46:55;;;;;;;20.73;13.10;;;640.00;2432.00;;;;;;5070654;28;20471;-75
2023/09/30 07:49:21;;;;;;;21.27;12.70;;;640.30;2406.40;;;;;;5065976;28;20017;-75
2023/09/30 07:51:47;;;;;;;16.88;12.55;;;640.50;2329.60;;;;;;5070548;28;20092;-76
2023/09/30 07:54:12;;;;;;;26.67;12.65;;;640.40;2329.60;;;;;;5067281;28;20059;-75
2023/09/30 07:56:38;;;;;;;20.20;12.70;;;640.60;2329.60;;;;;;5067949;28;20024;-74
2023/09/30 07:59:05;;;;;;;18.35;11.20;;;640.70;2304.00;;;;;;5074893;28;20051;-75
2023/09/30 08:01:31;;;;;;;16.42;12.38;;;640.70;2304.00;;;;;;5075379;28;20027;-74
2023/09/30 08:03:57;;;;;;;18.88;11.30;;;665.60;2278.40;;;;;;5066859;28;20509;-75
2023/09/30 08:06:23;;;;;;;20.67;11.00;;;665.70;2227.20;;;;;;5071278;28;20091;-74
2023/09/30 08:08:49;;;;;;;16.58;11.40;;;665.90;2252.80;;;;;;5067388;28;20044;-75
2023/09/30 08:11:15;;;;;;;14.18;10.95;;;666.10;2227.20;;;;;;5071733;28;20397;-75
2023/09/30 08:13:41;;;;;;;16.63;10.88;;;666.10;2252.80;;;;;;5069587;28;20103;-74
2023/09/30 08:16:07;;;;;;;21.42;11.18;;;;;;;;;;5073971;28;20027;-75
2023/09/30 08:18:32;;;;;;;13.82;9.80;;;666.50;2124.80;;;;;;5072576;28;20033;-75
2023/09/30 08:20:58;;;;;;;16.15;10.15;;;691.20;2124.80;;;;;;5066749;28;20047;-75
2023/09/30 08:23:24;;;;;;;18.55;10.70;;;691.40;2150.40;;;;;;5067867;28;20453;-76
2023/09/30 08:25:50;;;;;;;15.25;9.48;;;691.40;2150.40;;;;;;5071904;28;20047;-73
2023/09/30 08:28:16;;;;;;;19.38;9.88;;;691.70;2073.60;;;;;;5074647;28;20020;-75
2023/09/30 08:30:42;;;;;;;18.55;9.20;;;691.80;2048.00;;;;;;5064891;28;20093;-76
2023/09/30 08:33:08;;;;;;;17.55;8.15;;;692.10;1996.80;;;;;;5064517;28;20028;-76
2023/09/30 08:35:40;;;;;;;14.60;8.05;;;692.10;1920.00;;;;;;5075537;28;20021;-74
2023/09/30 08:38:05;;;;;;;13.20;8.13;;;692.10;1817.60;;;;;;5063275;28;20518;-76
2023/09/30 08:40:31;;;;;;;22.45;7.07;;;717.00;1817.60;;;;;;5069529;28;20119;-73
2023/09/30 08:42:57;;;;;;;11.93;7.65;;;717.00;1766.40;;;;;;5067812;28;20017;-73
2023/09/30 08:45:24;;;;;;;11.93;7.47;;;717.20;1766.40;;;;;;5066258;28;20024;-73
2023/09/30 08:47:50;;;;;;;17.20;7.55;;;717.20;1766.40;;;;;;5069822;28;20020;-73
2023/09/30 08:50:17;;;;;;;17.80;7.25;;;717.50;1766.40;;;;;;5075991;28;20024;-73
2023/09/30 08:52:44;;;;;;;15.75;7.28;;;717.50;1715.20;;;;;;5066234;28;20025;-73
2023/09/30 08:55:11;;;;;;;13.82;6.63;;;717.50;1740.80;;;;;;5070515;28;20036;-73
2023/09/30 08:57:39;;;;;;;12.90;7.07;;;717.50;1664.00;;;;;;5065934;28;20023;-72
2023/09/30 09:00:07;;;;;;;18.63;7.28;;;717.60;1664.00;;;;;;5067109;28;20039;-72
2023/09/30 09:02:36;;;;;;;14.68;7.13;;;742.50;1689.60;;;;;;5065688;28;20016;-75
2023/09/30 09:05:02;;;;;;;26.48;7.85;;;742.70;1689.60;;;;;;5070570;28;20063;-73
2023/09/30 09:07:28;;;;;;;11.27;7.20;;;742.80;1638.40;;;;;;5072772;28;20424;-74
2023/09/30 09:10:23;;;;;;;10.43;6.53;;;742.90;1664.00;;;;;;5087396;28;20081;-74
2023/09/30 09:12:59;;;;;;;17.48;7.68;;;743.00;1612.80;;;;;;5053578;28;20071;-73
2023/09/30 09:15:28;;;;;;;12.80;7.90;;;743.00;1587.20;;;;;;5052414;28;20017;-73
2023/09/30 09:17:54;;;;;;;14.00;7.10;;;743.20;1536.00;;;;;;5052909;28;20048;-73
2023/09/30 09:20:28;;;;;;;13.75;6.65;;;768.00;1561.60;;;;;;5043107;28;20029;-73
2023/09/30 09:22:55;;;;;;;10.52;6.78;;;768.00;1536.00;;;;;;5052678;28;20029;-73
2023/09/30 09:25:22;;;;;;;12.18;6.88;;;768.30;1510.40;;;;;;5029797;28;20426;-73
2023/09/30 09:27:50;;;;;;;11.45;7.13;;;768.40;1510.40;;;;;;5052604;28;20028;-73
2023/09/30 09:30:16;;;;;;;13.63;7.00;;;768.60;1510.40;;;;;;5052396;28;20475;-73
2023/09/30 09:33:04;;;;;;;10.32;6.75;;;768.90;1536.00;;;;;;5052635;28;20032;-73
2023/09/30 09:35:34;;;;;;;15.07;7.68;;;793.60;1484.80;;;;;;5052297;28;20453;-74
2023/09/30 09:38:07;;;;;;;10.27;5.95;;;793.90;1433.60;;;;;;5052639;28;20041;-74
2023/09/30 09:40:34;;;;;;;13.05;7.25;;;793.90;1433.60;;;;;;5051903;28;20061;-73
2023/09/30 09:43:04;;;;;;;15.93;8.52;;;794.10;1459.20;;;;;;5053261;28;20029;-73
2023/09/30 09:45:36;;;;;;;11.60;7.15;;;794.40;1433.60;;;;;;5052582;28;20116;-73
2023/09/30 09:48:04;;;;;;;10.52;6.22;;;794.30;1408.00;;;;;;5052908;28;20025;-74
2023/09/30 09:50:32;;;;;;;13.60;6.38;;;794.40;1382.40;;;;;;5067547;28;20021;-73
2023/09/30 09:53:00;;;;;;;11.73;6.47;;;794.40;1331.20;;;;;;5077143;28;20040;-73
2023/09/30 09:55:27;;;;;;;19.38;8.15;;;819.30;1356.80;;;;;;5073428;28;20073;-73
2023/09/30 09:57:54;;;;;;;13.77;7.28;;;819.40;1356.80;;;;;;5075126;28;20020;-74
2023/09/30 10:00:25;;;;;;;13.90;6.18;;;819.50;1382.40;;;;;;5069161;28;20048;-74
2023/09/30 10:02:51;;;;;;;11.70;6.00;;;819.60;1331.20;;;;;;5061367;28;20028;-74
2023/09/30 10:05:19;;;;;;;12.07;6.20;;;819.80;1331.20;;;;;;5072215;28;20025;-74
2023/09/30 10:08:00;;;;;;;21.63;7.10;;;819.60;1305.60;;;;;;5068262;28;20017;-74
2023/09/30 10:10:28;;;;;;;12.35;6.03;;;819.60;1305.60;;;;;;5083000;28;20028;-74
2023/09/30 10:12:54;;;;;;;11.18;6.30;;;819.90;1305.60;;;;;;5073656;28;20032;-74
2023/09/30 10:15:25;;;;;;;14.25;6.85;;;820.00;1280.00;;;;;;5080047;28;20542;-74
2023/09/30 10:18:11;;;;;;;11.98;5.13;;;820.10;1254.40;;;;;;5067571;28;20501;-74
2023/09/30 10:20:41;;;;;;;12.25;5.75;;;844.90;1280.00;;;;;;5063024;28;20469;-72
2023/09/30 10:23:20;;;;;;;12.15;6.18;;;844.90;1280.00;;;;;;5075837;28;20037;-73
2023/09/30 10:25:47;;;;;;;14.73;8.98;;;844.90;1254.40;;;;;;5063541;28;20040;-73
2023/09/30 10:28:36;;;;;;;10.80;6.53;;;845.10;1254.40;;;;;;5080534;28;20142;-73
2023/09/30 10:31:24;;;;;;;10.02;6.90;;;845.10;1228.80;;;;;;5065719;28;20061;-73
2023/09/30 10:34:05;;;;;;;16.00;5.93;;;845.20;1254.40;;;;;;5070952;28;20028;-72
2023/09/30 10:36:31;;;;;;;12.68;6.30;;;845.30;1228.80;;;;;;5065572;28;20491;-75
2023/09/30 10:38:57;;;;;;;9.68;5.90;;;845.30;1228.80;;;;;;5089064;28;20036;-76
2023/09/30 10:41:41;;;;;;;9.80;5.63;;;845.40;1228.80;;;;;;5075185;28;20052;-73
2023/09/30 10:44:25;;;;;;;12.40;6.38;;;845.30;1228.80;;;;;;5071409;28;20021;-75
2023/09/30 10:46:55;;;;;;;7.25;5.65;;;845.40;1228.80;;;;;;5063388;28;20028;-74
2023/09/30 10:49:25;;;;;;;293.10;183.82;;;845.40;1228.80;;;;;;5076328;28;20410;-76
2023/09/30 10:51:56;;;;;;;76.32;45.17;;;845.50;1203.20;;;;;;5075511;28;20091;-74
2023/09/30 10:54:29;;;;;;;115.50;71.72;;;845.60;1177.60;;;;;;5071188;28;20019;-74
2023/09/30 10:56:55;;;;;;;111.35;70.65;;;845.60;1177.60;;;;;;5072923;28;20037;-74
2023/09/30 10:59:26;;;;;;;46.55;26.80;;;845.70;1177.60;;;;;;5068496;28;20041;-75
2023/09/30 11:01:53;;;;;;;22.52;12.27;;;845.60;1152.00;;;;;;5063608;28;20029;-74
2023/09/30 11:04:19;;;;;;;26.33;17.27;;;870.40;1152.00;;;;;;5067723;28;20020;-74
2023/09/30 11:06:46;;;;;;;33.67;22.23;;;845.70;1177.60;;;;;;5067433;28;20029;-74
2023/09/30 11:09:22;;;;;;;12.43;6.75;;;845.70;1152.00;;;;;;5080432;28;20103;-74
2023/09/30 11:11:53;;;;;;;13.75;9.27;;;845.70;1126.40;;;;;;5070748;28;20024;-76
2023/09/30 11:14:23;;;;;;;14.35;5.90;;;845.70;1100.80;;;;;;5080388;28;20518;-75
2023/09/30 11:16:51;;;;;;;15.00;10.30;;;845.40;1126.40;;;;;;5075518;28;20021;-76
2023/09/30 11:19:27;;;;;;;24.05;11.07;;;845.60;1126.40;;;;;;5075028;28;20029;-76
2023/09/30 11:21:58;;;;;;;14.50;6.00;;;845.50;1152.00;;;;;;5064182;28;20076;-76
2023/09/30 11:24:24;;;;;;;10.38;6.60;;;845.60;1126.40;;;;;;5085662;28;20485;-76
2023/09/30 11:26:54;;;;;;;11.88;7.43;;;845.70;1075.20;;;;;;5069353;28;20029;-75
2023/09/30 11:29:20;;;;;;;8.73;5.35;;;870.50;1075.20;;;;;;5067484;28;20081;-74
2023/09/30 11:31:50;;;;;;;12.98;6.30;;;845.70;1075.20;;;;;;5068062;28;20355;-74
2023/09/30 11:34:18;;;;;;;15.55;6.78;;;870.40;1100.80;;;;;;5073378;28;20032;-74
2023/09/30 11:36:52;;;;;;;29.75;15.48;;;845.70;1228.80;;;;;;5068027;28;20025;-74
2023/09/30 11:39:29;;;;;;;13.65;7.60;;;870.50;1075.20;;;;;;5088327;28;20032;-74
2023/09/30 11:41:56;;;;;;;22.88;10.07;;;845.20;1100.80;;;;;;5070555;28;20032;-74
2023/09/30 11:44:31;;;;;;;18.25;6.18;;;845.30;1100.80;;;;;;5062005;28;20024;-74
2023/09/30 11:47:08;;;;;;;11.35;6.93;;;845.40;1100.80;;;;;;5067160;28;20432;-74
2023/09/30 11:49:36;;;;;;;11.27;6.15;;;845.60;1100.80;;;;;;5075276;28;20035;-74
2023/09/30 11:52:09;;;;;;;12.63;6.60;;;844.80;1126.40;;;;;;5065665;28;20028;-74
2023/09/30 11:54:45;;;;;;;12.88;5.97;;;819.80;1126.40;;;;;;5066837;28;20025;-74
2023/09/30 11:57:15;;;;;;;11.73;5.25;;;819.30;1152.00;;;;;;5070600;28;20013;-72
2023/09/30 11:59:41;;;;;;;15.13;6.30;;;794.20;1152.00;;;;;;5071412;28;20036;-73
2023/09/30 12:02:10;;;;;;;11.70;5.35;;;794.20;1177.60;;;;;;5073126;28;20020;-72
2023/09/30 12:04:37;;;;;;;16.58;6.28;;;819.30;1152.00;;;;;;5077146;28;20020;-72